createdAt,value
2019-01-02T00:01:10.916Z,71.79
2019-01-02T00:03:40.416Z,71.47
2019-01-02T00:06:09.921Z,71.94
2019-01-02T00:08:39.387Z,72.12
2019-01-02T00:11:08.938Z,72.15
2019-01-02T00:13:38.704Z,72.28
2019-01-02T00:16:08.238Z,72.25
2019-01-02T00:18:38.152Z,71.87
2019-01-02T00:21:07.641Z,72.14
2019-01-02T00:23:37.409Z,71.96
2019-01-02T00:26:06.954Z,71.84
2019-01-02T00:28:36.513Z,72.24
2019-01-02T00:31:06.382Z,72.44
2019-01-02T00:33:35.851Z,72.40
2019-01-02T00:36:05.509Z,72.17
2019-01-02T00:38:35.014Z,72.30
2019-01-02T00:41:05.014Z,72.15
2019-01-02T00:43:34.580Z,72.39
2019-01-02T00:46:04.475Z,72.79
2019-01-02T00:48:34.025Z,72.65
2019-01-02T00:51:03.476Z,72.73
2019-01-02T00:53:32.978Z,72.41
2019-01-02T00:56:02.464Z,72.30
2019-01-02T00:58:31.990Z,72.28
2019-01-02T01:01:13.387Z,72.18
2019-01-02T01:03:42.875Z,71.74
2019-01-02T01:06:12.353Z,71.65
2019-01-02T01:08:41.839Z,71.79
2019-01-02T01:11:11.902Z,72.21
2019-01-02T01:13:41.389Z,72.12
2019-01-02T01:16:10.954Z,72.47
2019-01-02T01:18:40.498Z,72.33
2019-01-02T01:21:09.957Z,72.17
2019-01-02T01:23:40.648Z,72.21
2019-01-02T01:26:11.280Z,72.29
2019-01-02T01:28:41.072Z,72.35
2019-01-02T01:31:10.520Z,72.26
2019-01-02T01:33:40.035Z,71.97
2019-01-02T01:36:10.016Z,71.64
2019-01-02T01:38:40.323Z,71.62
2019-01-02T01:41:11.639Z,71.77
2019-01-02T01:43:41.495Z,71.70
2019-01-02T01:46:11.139Z,71.68
2019-01-02T01:48:41.119Z,71.56
2019-01-02T01:51:10.905Z,71.54
2019-01-02T01:53:40.442Z,71.53
2019-01-02T01:56:10.446Z,71.36
2019-01-02T01:58:39.958Z,71.23
2019-01-02T02:01:09.420Z,71.14
2019-01-02T02:03:38.895Z,70.86
2019-01-02T02:06:08.492Z,70.77
2019-01-02T02:08:38.649Z,70.62
2019-01-02T02:11:08.166Z,70.44
2019-01-02T02:13:37.695Z,70.36
2019-01-02T02:16:07.580Z,70.22
2019-01-02T02:18:37.094Z,70.05
2019-01-02T02:21:07.702Z,70.02
2019-01-02T02:23:37.175Z,70.07
2019-01-02T02:26:06.676Z,69.88
2019-01-02T02:28:36.465Z,69.99
2019-01-02T02:31:06.011Z,69.98
2019-01-02T02:33:35.642Z,69.99
2019-01-02T02:36:05.531Z,70.19
2019-01-02T02:38:35.407Z,70.37
2019-01-02T02:41:05.267Z,70.54
2019-01-02T02:43:34.957Z,70.63
2019-01-02T02:46:04.433Z,70.70
2019-01-02T02:48:34.264Z,70.93
2019-01-02T02:51:04.240Z,71.08
2019-01-02T02:53:34.139Z,71.22
2019-01-02T02:56:03.973Z,71.45
2019-01-02T02:58:33.728Z,71.32
2019-01-02T03:01:03.543Z,71.51
2019-01-02T03:03:33.340Z,71.43
2019-01-02T03:06:02.864Z,71.39
2019-01-02T03:08:32.288Z,71.58
2019-01-02T03:11:01.747Z,71.66
2019-01-02T03:13:31.510Z,71.83
2019-01-02T03:16:01.310Z,71.87
2019-01-02T03:18:30.984Z,72.07
2019-01-02T03:21:00.857Z,72.02
2019-01-02T03:23:30.357Z,71.87
2019-01-02T03:25:59.839Z,71.75
2019-01-02T03:28:29.645Z,71.83
2019-01-02T03:30:59.562Z,71.69
2019-01-02T03:33:29.345Z,71.77
2019-01-02T03:35:58.821Z,72.18
2019-01-02T03:38:28.322Z,72.56
2019-01-02T03:40:57.818Z,73.10
2019-01-02T03:43:27.285Z,73.39
2019-01-02T03:45:56.830Z,73.47
2019-01-02T03:48:29.972Z,73.39
2019-01-02T03:50:59.670Z,73.32
2019-01-02T03:53:29.144Z,73.07
2019-01-02T03:55:58.697Z,72.94
2019-01-02T03:58:28.226Z,72.98
2019-01-02T04:00:57.736Z,72.67
2019-01-02T04:03:27.200Z,72.42
2019-01-02T04:05:59.000Z,72.41
2019-01-02T04:08:28.976Z,72.61
2019-01-02T04:10:58.449Z,72.83
2019-01-02T04:13:27.964Z,72.97
2019-01-02T04:15:57.535Z,73.12
2019-01-02T04:18:27.074Z,72.94
2019-01-02T04:20:56.593Z,72.86
2019-01-02T04:23:26.176Z,72.70
2019-01-02T04:25:55.669Z,72.67
2019-01-02T04:28:25.179Z,73.01
2019-01-02T04:30:54.650Z,73.14
2019-01-02T04:33:24.152Z,72.89
2019-01-02T04:35:53.663Z,72.61
2019-01-02T04:38:23.117Z,72.66
2019-01-02T04:40:52.545Z,72.44
2019-01-02T04:43:22.069Z,72.43
2019-01-02T04:45:51.507Z,72.83
2019-01-02T04:48:29.950Z,72.63
2019-01-02T04:51:00.115Z,72.28
2019-01-02T04:53:29.553Z,71.82
2019-01-02T04:55:59.081Z,71.60
2019-01-02T04:58:28.544Z,71.64
2019-01-02T05:00:58.087Z,71.79
2019-01-02T05:03:27.608Z,71.78
2019-01-02T05:05:57.126Z,71.73
2019-01-02T05:08:26.603Z,71.68
2019-01-02T05:10:56.130Z,72.04
2019-01-02T05:13:25.594Z,72.23
2019-01-02T05:15:55.198Z,72.00
2019-01-02T05:18:24.695Z,72.20
2019-01-02T05:20:54.132Z,72.76
2019-01-02T05:23:23.641Z,73.29
2019-01-02T05:25:53.098Z,73.94
2019-01-02T05:28:22.553Z,73.68
2019-01-02T05:30:51.999Z,73.79
2019-01-02T05:33:21.455Z,73.99
2019-01-02T05:35:50.959Z,74.00
2019-01-02T05:38:20.472Z,74.17
2019-01-02T05:40:51.302Z,74.18
2019-01-02T05:43:20.803Z,73.81
2019-01-02T05:45:50.336Z,73.63
2019-01-02T05:48:19.866Z,73.42
2019-01-02T05:50:49.392Z,72.87
2019-01-02T05:53:18.865Z,72.57
2019-01-02T05:55:48.296Z,72.30
2019-01-02T05:58:17.833Z,71.90
2019-01-02T06:00:47.297Z,71.67
2019-01-02T06:03:16.767Z,71.53
2019-01-02T06:05:46.744Z,71.15
2019-01-02T06:08:16.253Z,70.97
2019-01-02T06:10:45.664Z,70.88
2019-01-02T06:13:15.172Z,70.64
2019-01-02T06:15:44.895Z,70.84
2019-01-02T06:18:14.346Z,70.93
2019-01-02T06:20:43.807Z,70.83
2019-01-02T06:23:13.324Z,71.15
2019-01-02T06:25:42.797Z,73.88
2019-01-02T06:28:13.335Z,71.72
2019-01-02T06:30:42.867Z,71.45
2019-01-02T06:33:12.389Z,71.21
2019-01-02T06:35:41.899Z,70.99
2019-01-02T06:38:11.495Z,70.74
2019-01-02T06:40:41.049Z,70.48
2019-01-02T06:43:10.549Z,70.50
2019-01-02T06:45:40.055Z,71.04
2019-01-02T06:48:09.579Z,71.50
2019-01-02T06:50:39.097Z,71.24
2019-01-02T06:53:08.627Z,71.18
2019-01-02T06:55:38.221Z,70.69
2019-01-02T06:58:07.754Z,69.50
2019-01-02T07:00:41.993Z,68.81
2019-01-02T07:03:11.489Z,68.30
2019-01-02T07:05:41.021Z,68.03
2019-01-02T07:08:10.542Z,67.87
2019-01-02T07:10:40.007Z,67.88
2019-01-02T07:13:09.491Z,67.79
2019-01-02T07:15:39.029Z,67.91
2019-01-02T07:18:08.535Z,67.79
2019-01-02T07:20:38.074Z,67.40
2019-01-02T07:23:07.639Z,68.01
2019-01-02T07:25:37.099Z,68.00
2019-01-02T07:28:06.617Z,68.21
2019-01-02T07:30:36.269Z,68.40
2019-01-02T07:33:05.833Z,68.53
2019-01-02T07:36:13.012Z,67.81
2019-01-02T07:39:22.379Z,67.95
2019-01-02T07:42:41.880Z,67.38
2019-01-02T07:45:44.765Z,67.30
2019-01-02T07:48:57.899Z,66.75
2019-01-02T07:52:02.042Z,66.71
2019-01-02T07:55:14.525Z,66.55
2019-01-02T07:58:33.232Z,66.46
2019-01-02T08:01:46.664Z,66.34
2019-01-02T08:04:45.395Z,65.87
2019-01-02T08:07:47.032Z,65.51
2019-01-02T08:11:06.758Z,65.71
2019-01-02T08:14:19.187Z,65.67
2019-01-02T08:17:26.745Z,66.04
2019-01-02T08:20:43.022Z,65.84
2019-01-02T08:23:46.022Z,65.25
2019-01-02T08:27:00.890Z,65.35
2019-01-02T08:29:50.249Z,65.72
2019-01-02T08:33:00.555Z,65.67
2019-01-02T08:35:55.229Z,64.91
2019-01-02T08:38:48.670Z,64.39
2019-01-02T08:41:59.051Z,63.63
2019-01-02T08:44:57.855Z,62.34
2019-01-02T08:48:20.894Z,61.75
2019-01-02T08:51:26.081Z,61.36
2019-01-02T08:54:36.971Z,60.98
2019-01-02T08:57:56.318Z,60.84
2019-01-02T09:01:12.872Z,60.46
2019-01-02T09:04:20.868Z,60.33
2019-01-02T09:07:08.159Z,60.24
2019-01-02T09:10:17.801Z,60.21
2019-01-02T09:13:19.936Z,59.96
2019-01-02T09:16:29.546Z,59.16
2019-01-02T09:19:25.608Z,58.94
2019-01-02T09:22:31.086Z,58.21
2019-01-02T09:25:39.834Z,57.47
2019-01-02T09:28:48.756Z,56.45
2019-01-02T09:31:42.887Z,55.37
2019-01-02T09:35:08.162Z,54.35
2019-01-02T09:38:29.047Z,54.08
2019-01-02T09:41:40.397Z,53.55
2019-01-02T09:44:46.289Z,53.58
2019-01-02T09:47:47.211Z,53.48
2019-01-02T09:50:48.945Z,52.48
2019-01-02T09:54:08.876Z,53.13
2019-01-02T09:57:16.011Z,53.12
2019-01-02T10:00:19.219Z,53.17
2019-01-02T10:03:29.368Z,53.25
2019-01-02T10:06:53.468Z,52.95
2019-01-02T10:09:59.834Z,52.77
2019-01-02T10:13:15.801Z,52.77
2019-01-02T10:16:17.024Z,52.47
2019-01-02T10:19:45.758Z,52.42
2019-01-02T10:22:48.239Z,52.25
2019-01-02T10:25:55.462Z,52.40
2019-01-02T10:29:15.279Z,52.35
2019-01-02T10:32:25.804Z,52.15
2019-01-02T10:35:34.433Z,52.51
2019-01-02T10:38:32.210Z,52.57
2019-01-02T10:41:45.104Z,52.41
2019-01-02T10:44:50.330Z,52.15
2019-01-02T10:48:06.898Z,52.90
2019-01-02T10:51:38.521Z,52.92
2019-01-02T10:54:41.654Z,53.41
2019-01-02T10:57:42.900Z,53.57
2019-01-02T11:00:56.681Z,53.73
2019-01-02T11:04:05.671Z,54.15
2019-01-02T11:07:08.982Z,54.57
2019-01-02T11:10:33.770Z,54.72
2019-01-02T11:13:41.115Z,55.09
2019-01-02T11:16:50.169Z,55.23
2019-01-02T11:20:03.738Z,55.52
2019-01-02T11:23:14.321Z,55.84
2019-01-02T11:26:25.990Z,56.25
2019-01-02T11:29:36.704Z,56.24
2019-01-02T11:32:51.769Z,55.95
2019-01-02T11:36:02.104Z,56.18
2019-01-02T11:38:56.567Z,56.52
2019-01-02T11:41:54.581Z,56.68
2019-01-02T11:44:57.298Z,56.80
2019-01-02T11:47:26.861Z,57.25
2019-01-02T11:49:56.316Z,57.38
2019-01-02T11:52:25.801Z,57.39
2019-01-02T11:54:55.559Z,57.02
2019-01-02T11:57:25.038Z,56.88
2019-01-02T11:59:54.538Z,57.28
2019-01-02T12:02:24.019Z,57.00
2019-01-02T12:04:53.483Z,56.51
2019-01-02T12:07:22.996Z,56.44
2019-01-02T12:09:52.519Z,55.92
2019-01-02T12:12:23.144Z,55.74
2019-01-02T12:14:52.753Z,56.16
2019-01-02T12:17:22.216Z,56.37
2019-01-02T12:19:51.750Z,56.16
2019-01-02T12:22:21.291Z,56.13
2019-01-02T12:24:50.777Z,55.81
2019-01-02T12:27:20.720Z,55.53
2019-01-02T12:29:50.204Z,55.32
2019-01-02T12:32:19.678Z,54.76
2019-01-02T12:34:49.141Z,54.54
2019-01-02T12:37:18.666Z,54.49
2019-01-02T12:39:48.392Z,54.12
2019-01-02T12:42:17.852Z,54.31
2019-01-02T12:44:47.374Z,54.44
2019-01-02T12:47:16.835Z,54.72
2019-01-02T12:49:46.329Z,55.40
2019-01-02T12:52:16.003Z,55.83
2019-01-02T12:54:45.485Z,56.44
2019-01-02T12:57:14.926Z,56.80
2019-01-02T12:59:44.500Z,57.16
2019-01-02T13:03:05.441Z,57.46
2019-01-02T13:06:11.676Z,57.48
2019-01-02T13:09:30.056Z,57.44
2019-01-02T13:12:40.799Z,57.31
2019-01-02T13:15:37.683Z,57.89
2019-01-02T13:18:56.286Z,57.85
2019-01-02T13:21:42.149Z,57.97
2019-01-02T13:24:46.740Z,57.91
2019-01-02T13:28:04.216Z,58.12
2019-01-02T13:31:17.594Z,58.44
2019-01-02T13:34:10.236Z,58.50
2019-01-02T13:37:10.987Z,59.46
2019-01-02T13:40:27.152Z,60.05
2019-01-02T13:43:19.856Z,60.51
2019-01-02T13:46:00.224Z,61.16
2019-01-02T13:49:09.854Z,61.68
2019-01-02T13:51:42.882Z,62.03
2019-01-02T13:54:12.325Z,62.33
2019-01-02T13:56:41.793Z,62.69
2019-01-02T13:59:11.278Z,62.69
2019-01-02T14:01:40.697Z,62.82
2019-01-02T14:04:13.216Z,62.93
2019-01-02T14:06:42.717Z,63.09
2019-01-02T14:09:12.164Z,63.28
2019-01-02T14:11:41.661Z,63.44
2019-01-02T14:14:11.232Z,63.36
2019-01-02T14:16:40.742Z,63.84
2019-01-02T14:19:10.574Z,64.06
2019-01-02T14:21:40.076Z,64.32
2019-01-02T14:24:10.991Z,64.51
2019-01-02T14:26:40.593Z,64.68
2019-01-02T14:29:10.228Z,64.93
2019-01-02T14:31:39.821Z,65.49
2019-01-02T14:34:09.363Z,65.88
2019-01-02T14:36:38.863Z,66.59
2019-01-02T14:39:08.886Z,67.16
2019-01-02T14:41:38.397Z,67.66
2019-01-02T14:44:07.976Z,68.01
2019-01-02T14:46:37.491Z,68.43
2019-01-02T14:49:07.001Z,68.70
2019-01-02T14:51:36.459Z,69.09
2019-01-02T14:54:06.895Z,69.05
2019-01-02T14:56:36.374Z,69.27
2019-01-02T14:59:05.872Z,69.52
2019-01-02T15:01:35.334Z,69.92
2019-01-02T15:04:04.986Z,70.10
2019-01-02T15:06:34.596Z,70.42
2019-01-02T15:09:05.541Z,70.69
2019-01-02T15:11:35.125Z,70.80
2019-01-02T15:14:04.620Z,71.09
2019-01-02T15:16:34.225Z,71.03
2019-01-02T15:19:03.851Z,71.21
2019-01-02T15:21:34.564Z,71.26
2019-01-02T15:24:04.241Z,71.41
2019-01-02T15:26:39.129Z,71.58
2019-01-02T15:29:08.634Z,71.71
2019-01-02T15:31:38.162Z,72.16
2019-01-02T15:34:07.666Z,72.24
2019-01-02T15:36:37.325Z,72.48
2019-01-02T15:39:08.529Z,72.73
2019-01-02T15:41:38.081Z,73.15
2019-01-02T15:44:10.067Z,73.33
2019-01-02T15:46:39.616Z,72.86
2019-01-02T15:49:09.293Z,73.19
2019-01-02T15:51:38.788Z,73.10
2019-01-02T15:54:08.292Z,73.30
2019-01-02T15:56:37.911Z,73.32
2019-01-02T15:59:07.318Z,73.68
2019-01-02T16:01:36.895Z,73.84
2019-01-02T16:04:06.431Z,73.61
2019-01-02T16:06:36.339Z,73.59
2019-01-02T16:09:08.354Z,73.44
2019-01-02T16:11:38.389Z,72.86
2019-01-02T16:14:08.009Z,72.91
2019-01-02T16:16:37.498Z,72.70
2019-01-02T16:19:07.080Z,72.26
2019-01-02T16:21:36.690Z,72.36
2019-01-02T16:24:06.441Z,72.27
2019-01-02T16:26:36.047Z,71.73
2019-01-02T16:29:06.112Z,71.09
2019-01-02T16:31:35.655Z,70.27
2019-01-02T16:34:07.702Z,69.80
2019-01-02T16:36:37.289Z,68.93
2019-01-02T16:39:12.972Z,68.06
2019-01-02T16:41:42.545Z,67.68
2019-01-02T16:44:12.121Z,67.45
2019-01-02T16:46:41.776Z,66.76
2019-01-02T16:49:14.168Z,66.27
2019-01-02T16:51:44.304Z,66.20
2019-01-02T16:54:14.861Z,65.26
2019-01-02T16:56:44.423Z,64.66
2019-01-02T16:59:14.566Z,64.27
2019-01-02T17:01:44.829Z,63.60
2019-01-02T17:04:14.481Z,63.47
2019-01-02T17:06:43.955Z,63.30
2019-01-02T17:09:14.267Z,63.19
2019-01-02T17:11:44.130Z,62.72
2019-01-02T17:14:14.382Z,62.55
2019-01-02T17:16:45.440Z,62.87
2019-01-02T17:19:16.851Z,62.84
2019-01-02T17:21:46.463Z,62.94
2019-01-02T17:24:16.058Z,63.13
2019-01-02T17:26:45.731Z,63.26
2019-01-02T17:29:15.349Z,62.75
2019-01-02T17:31:51.328Z,63.10
2019-01-02T17:34:22.436Z,63.32
2019-01-02T17:36:51.995Z,63.68
2019-01-02T17:39:23.370Z,63.82
2019-01-02T17:41:53.135Z,63.81
2019-01-02T17:44:27.752Z,63.90
2019-01-02T17:46:58.269Z,64.17
2019-01-02T17:49:28.278Z,64.38
2019-01-02T17:51:57.937Z,64.64
2019-01-02T17:54:27.666Z,64.49
2019-01-02T17:56:57.222Z,64.36
2019-01-02T17:59:26.838Z,64.35
2019-01-02T18:01:56.321Z,64.15
2019-01-02T18:04:25.941Z,64.24
2019-01-02T18:06:56.785Z,64.44
2019-01-02T18:09:26.349Z,64.55
2019-01-02T18:11:57.658Z,64.63
2019-01-02T18:14:27.357Z,64.39
2019-01-02T18:16:57.497Z,64.31
2019-01-02T18:19:27.166Z,64.48
2019-01-02T18:21:58.592Z,64.80
2019-01-02T18:24:29.324Z,64.87
2019-01-02T18:26:58.983Z,65.22
2019-01-02T18:29:28.975Z,65.31
2019-01-02T18:31:58.476Z,65.63
2019-01-02T18:34:27.976Z,65.67
2019-01-02T18:36:57.704Z,65.54
2019-01-02T18:39:27.330Z,65.38
2019-01-02T18:41:56.859Z,65.42
2019-01-02T18:44:26.347Z,65.51
2019-01-02T18:46:55.773Z,65.50
2019-01-02T18:49:25.276Z,65.63
2019-01-02T18:51:54.709Z,65.90
2019-01-02T18:54:24.265Z,66.30
2019-01-02T18:56:53.822Z,66.70
2019-01-02T18:59:23.855Z,67.10
2019-01-02T19:01:53.813Z,67.29
2019-01-02T19:04:23.317Z,67.59
2019-01-02T19:06:52.905Z,67.82
2019-01-02T19:09:22.449Z,68.11
2019-01-02T19:11:52.148Z,68.24
2019-01-02T19:14:21.679Z,68.40
2019-01-02T19:16:51.208Z,68.52
2019-01-02T19:19:20.731Z,68.54
2019-01-02T19:21:50.225Z,68.68
2019-01-02T19:24:19.774Z,69.04
2019-01-02T19:26:49.249Z,69.34
2019-01-02T19:29:18.989Z,69.35
2019-01-02T19:31:48.563Z,69.51
2019-01-02T19:34:18.050Z,69.56
2019-01-02T19:36:47.663Z,69.26
2019-01-02T19:39:17.343Z,68.98
2019-01-02T19:41:46.878Z,69.12
2019-01-02T19:44:16.410Z,69.18
2019-01-02T19:46:45.942Z,69.58
2019-01-02T19:49:15.474Z,69.80
2019-01-02T19:51:45.112Z,70.36
2019-01-02T19:54:14.606Z,70.42
2019-01-02T19:56:44.082Z,70.31
2019-01-02T19:59:13.619Z,70.42
2019-01-02T20:01:43.058Z,70.57
2019-01-02T20:04:12.541Z,70.73
2019-01-02T20:06:42.074Z,70.67
2019-01-02T20:09:11.601Z,70.58
2019-01-02T20:11:41.096Z,70.36
2019-01-02T20:14:10.851Z,70.09
2019-01-02T20:16:40.369Z,70.16
2019-01-02T20:19:09.871Z,70.09
2019-01-02T20:21:39.337Z,70.23
2019-01-02T20:24:11.885Z,70.32
2019-01-02T20:26:55.551Z,70.33
2019-01-02T20:29:25.216Z,70.28
2019-01-02T20:31:54.775Z,70.67
2019-01-02T20:34:24.282Z,70.88
2019-01-02T20:36:53.786Z,70.97
2019-01-02T20:39:23.255Z,70.97
2019-01-02T20:41:52.778Z,70.97
2019-01-02T20:44:22.423Z,70.83
2019-01-02T20:46:51.926Z,71.06
2019-01-02T20:49:21.404Z,71.06
2019-01-02T20:51:50.885Z,71.27
2019-01-02T20:54:20.474Z,71.09
2019-01-02T20:56:50.020Z,71.00
2019-01-02T20:59:19.539Z,71.24
2019-01-02T21:01:49.007Z,71.01
2019-01-02T21:04:18.556Z,70.74
2019-01-02T21:06:49.597Z,70.85
2019-01-02T21:09:19.137Z,71.15
2019-01-02T21:11:48.622Z,71.07
2019-01-02T21:14:18.765Z,71.03
2019-01-02T21:16:48.257Z,71.07
2019-01-02T21:19:17.796Z,71.15
2019-01-02T21:21:55.643Z,71.22
2019-01-02T21:24:42.660Z,71.07
2019-01-02T21:27:12.181Z,70.97
2019-01-02T21:29:41.728Z,71.30
2019-01-02T21:32:13.859Z,71.28
2019-01-02T21:34:43.407Z,70.97
2019-01-02T21:37:12.939Z,70.76
2019-01-02T21:39:42.452Z,70.73
2019-01-02T21:42:11.952Z,70.75
2019-01-02T21:44:45.268Z,70.84
2019-01-02T21:47:14.808Z,70.73
2019-01-02T21:49:44.341Z,70.45
2019-01-02T21:52:13.804Z,70.74
2019-01-02T21:54:46.915Z,70.64
2019-01-02T21:57:16.476Z,70.73
2019-01-02T21:59:45.991Z,70.62
2019-01-02T22:02:23.243Z,70.98
2019-01-02T22:04:55.332Z,70.87
2019-01-02T22:07:24.797Z,70.57
2019-01-02T22:09:54.243Z,70.35
2019-01-02T22:12:27.753Z,70.67
2019-01-02T22:14:57.274Z,71.00
2019-01-02T22:17:26.797Z,71.37
2019-01-02T22:19:56.268Z,71.43
2019-01-02T22:22:25.767Z,71.18
2019-01-02T22:24:55.277Z,70.86
2019-01-02T22:27:24.760Z,70.63
2019-01-02T22:29:54.200Z,70.60
2019-01-02T22:32:23.770Z,70.31
2019-01-02T22:34:53.257Z,70.04
2019-01-02T22:37:22.734Z,69.78
2019-01-02T22:39:52.267Z,69.63
2019-01-02T22:42:21.817Z,69.63
2019-01-02T22:44:51.318Z,69.55
2019-01-02T22:47:20.786Z,69.58
2019-01-02T22:49:50.300Z,69.93
2019-01-02T22:52:20.372Z,70.60
2019-01-02T22:54:49.883Z,71.01
2019-01-02T22:57:19.369Z,71.13
2019-01-02T22:59:48.875Z,71.05
2019-01-02T23:02:33.421Z,71.05
2019-01-02T23:05:21.878Z,70.61
2019-01-02T23:08:16.385Z,70.52
2019-01-02T23:11:10.785Z,70.42
2019-01-02T23:14:03.701Z,70.02
2019-01-02T23:17:01.151Z,69.64
2019-01-02T23:19:48.331Z,69.75
2019-01-02T23:22:38.547Z,70.05
2019-01-02T23:25:30.051Z,70.58
2019-01-02T23:28:18.488Z,70.60
2019-01-02T23:31:05.297Z,70.55
2019-01-02T23:33:54.802Z,70.39
2019-01-02T23:36:41.830Z,70.57
2019-01-02T23:39:23.902Z,70.59
2019-01-02T23:42:11.317Z,70.42
2019-01-02T23:45:18.185Z,70.31
2019-01-02T23:48:06.494Z,70.77
2019-01-02T23:51:00.693Z,70.73
2019-01-02T23:53:47.721Z,71.00
2019-01-02T23:56:42.082Z,70.81
2019-01-02T23:59:33.538Z,70.65
